メインページ
METAR-TAF:

METAR-TAF

空港 :

アデレード空港

アデレード, オーストラリア

緯度: 34-56S, 経度: 138-31E, 海抜: 6m

現時点の気象観測

当レポートは47分前の03:00(UTC)に作成
南西の風 17kt
気温 18°C
湿度 45%
気圧 1015 hPa
視程10km以上
高度4000ftの雲はほとんどない
高度6000ftの千切れ雲あり

METAR: YPAD 250300Z 23017KT 9999 FEW040 BKN060 18/06 Q1015 NOSIG

時間: 14:17 (03:47 UTC)

予報

当レポートは4時間29分前の23:18(UTC)に作成
予報は25日の 00時(UTC)から 26日の 06時(UTC)まで有効
西/南西の風 20kt、最大32ktの突風を伴う
視程10km以上
高度3500ftの雲は散在している
弱いにわか雨
25日の 0200時(UTC)から
西/南西の風 20kt
視程10km以上
高度4000ftの雲は散在している
25日の 0800時(UTC)から
南西の風 14kt
視程10km以上
高度4000ftの雲は散在している
25日の 1200時(UTC)から
南西の風 8kt
視程10km以上
高度3000ftの千切れ雲あり
26日の 0000時(UTC)から
南西の風 14kt
視程10km以上
高度4000ftの雲は散在している

TAF: YPAD 242318Z 2500/2606 25020G32KT 9999 -SHRA SCT035 FM250200 24020KT 9999 SCT040 FM250800 23014KT 9999 SCT040 FM251200 23008KT 9999 BKN030 FM260000 23014KT 9999 SCT040

4,000以上の空港の気象観測と天気予報(METAR報とTAF報)

利用可能な観測所は地図上に黄色い丸と赤い丸で示す。

丸の上にカーソルを重ねると観測所名を参照できる。

次にクリックすると気象観測と天気予報を参照できる。

マップの切り替え:黒色「×」印の緑ボタンをクリックして拡大、「-」印の緑ボタンをクリックして縮小、緑色の三角印をクリックして隣りの地図に切り替え


METAR-TAF: